^^
Station Historical Data
Daily Summary for January 16, 2018 Units:  Metric    English   Both
« Previous Day
Next Day »
Daily Weekly Monthly Yearly Custom
  High: Low: Average:
Temperature: -17.8 °C 18.4 °C 24.9 °C
Dew Point: -17.8 °C -0.9 °C 7.3 °C
Humidity: Humidity% 8% 37%
Wind Speed: 0km/h 0km/h 12.9km/h
Wind Gust: 0km/h - -
Wind- - SW
Pressure: 0 hPa 1002.3 hPa -
Precipitation: 0 mm    
Historical Graphs
 
 
Tabular Data for January 16, 2018
Time Temperature Dew Point Pressure Wind Wind Speed Wind Gust Humidity Rainfall Rate (Hourly) solar Conditions
-17.8 °C -17.8 °C 0 hPa Calm     Humidity% 0 mm SolarRadiationWatts/m^2 W/m2 Conditions
00:02 23.7 °C 8.9 °C 1009.4 hPa SW 16.3 km/h 17.7 km/h 39% 0 mm 0.0 W/m2
00:07 23.6 °C 8.8 °C 1009.4 hPa SW 17.7 km/h 17.7 km/h 39% 0 mm 0.0 W/m2
00:12 23.4 °C 9 °C 1009.4 hPa SW 11.1 km/h 17.7 km/h 40% 0 mm 0.0 W/m2
00:18 23.3 °C 8.9 °C 1009.4 hPa SW 14.3 km/h 16.1 km/h 40% 0 mm 0.0 W/m2
00:33 23.1 °C 9.1 °C 1009 hPa SW 17.7 km/h 19.3 km/h 41% 0 mm 0.0 W/m2
00:38 23.1 °C 9.1 °C 1009 hPa SW 16.3 km/h 19.3 km/h 41% 0 mm 0.0 W/m2
00:43 23.1 °C 9.1 °C 1009 hPa SW 16.3 km/h 20.9 km/h 41% 0 mm 0.0 W/m2
00:53 22.9 °C 8.9 °C 1009 hPa SW 19.5 km/h 24.1 km/h 41% 0 mm 0.0 W/m2
01:03 22.8 °C 9.2 °C 1009 hPa SW 13 km/h 22.5 km/h 42% 0 mm 0.0 W/m2
01:08 22.7 °C 9.1 °C 1009 hPa SW 17.7 km/h 24.1 km/h 42% 0 mm 0.0 W/m2
01:18 22.6 °C 9.4 °C 1009 hPa SSW 14.3 km/h 20.9 km/h 43% 0 mm 0.0 W/m2
01:23 22.4 °C 9.2 °C 1009 hPa SSW 20.9 km/h 24.1 km/h 43% 0 mm 0.0 W/m2
01:28 22.3 °C 9.1 °C 1009 hPa SSW 17.7 km/h 24.1 km/h 43% 0 mm 0.0 W/m2
01:33 22.3 °C 9.1 °C 1009 hPa SSW 16.3 km/h 25.7 km/h 43% 0 mm 0.0 W/m2
01:43 22.1 °C 9.3 °C 1009 hPa SSW 19.5 km/h 20.9 km/h 44% 0 mm 0.0 W/m2
01:48 21.9 °C 9.4 °C 1009 hPa SW 16.3 km/h 22.5 km/h 45% 0 mm 0.0 W/m2
01:53 21.8 °C 9.3 °C 1009 hPa SW 14.3 km/h 17.7 km/h 45% 0 mm 0.0 W/m2
02:03 21.7 °C 9.6 °C 1009 hPa SW 16.3 km/h 19.3 km/h 46% 0 mm 0.0 W/m2
02:08 21.6 °C 9.5 °C 1009 hPa SW 11.1 km/h 19.3 km/h 46% 0 mm 0.0 W/m2
02:13 21.5 °C 9.4 °C 1008.7 hPa SW 9.7 km/h 14.5 km/h 46% 0 mm 0.0 W/m2
02:18 21.4 °C 9.3 °C 1008.7 hPa SW 14.3 km/h 14.5 km/h 46% 0 mm 0.0 W/m2
02:23 21.3 °C 9.2 °C 1008.7 hPa SW 13 km/h 16.1 km/h 46% 0 mm 0.0 W/m2
02:28 21.3 °C 9.5 °C 1008.7 hPa SW 9.7 km/h 16.1 km/h 47% 0 mm 0.0 W/m2
02:33 21.2 °C 9.4 °C 1008.7 hPa SW 13 km/h 16.1 km/h 47% 0 mm 0.0 W/m2
02:43 21.1 °C 9.3 °C 1008.4 hPa SW 14.3 km/h 16.1 km/h 47% 0 mm 0.0 W/m2
02:48 21.1 °C 9.7 °C 1008.4 hPa SW 13 km/h 17.7 km/h 48% 0 mm 0.0 W/m2
02:58 21 °C 9.6 °C 1008.4 hPa SW 16.3 km/h 19.3 km/h 48% 0 mm 0.0 W/m2
03:04 20.9 °C 9.5 °C 1008.4 hPa SW 11.1 km/h 17.7 km/h 48% 0 mm 0.0 W/m2
03:14 20.8 °C 9.4 °C 1008.4 hPa SW 13 km/h 16.1 km/h 48% 0 mm 0.0 W/m2
03:24 20.7 °C 9.3 °C 1008 hPa SW 13 km/h 17.7 km/h 48% 0 mm 0.0 W/m2
03:30 20.7 °C 9.6 °C 1008 hPa SW 13 km/h 14.5 km/h 49% 0 mm 0.0 W/m2
03:35 20.6 °C 9.5 °C 1008 hPa SW 13 km/h 16.1 km/h 49% 0 mm 0.0 W/m2
03:44 20.5 °C 9.7 °C 1008 hPa SW 16.3 km/h 16.3 km/h 50% 0 mm 0.0 W/m2
03:54 20.3 °C 9.5 °C 1008 hPa SW 11.1 km/h 14.5 km/h 50% 0 mm 0.0 W/m2
03:59 20.2 °C 9.4 °C 1008 hPa SW 11.1 km/h 12.9 km/h 50% 0 mm 0.0 W/m2
04:04 20.1 °C 9.4 °C 1008 hPa SW 11.1 km/h 12.9 km/h 50% 0 mm 0.0 W/m2
04:09 20.1 °C 9.6 °C 1008 hPa SW 13 km/h 13 km/h 51% 0 mm 0.0 W/m2
04:19 19.9 °C 9.8 °C 1008 hPa SW 11.1 km/h 11.3 km/h 52% 0 mm 0.0 W/m2
04:24 19.8 °C 9.7 °C 1008 hPa SW 7.9 km/h 12.9 km/h 52% 0 mm 0.0 W/m2
04:29 19.7 °C 9.6 °C 1008 hPa SW 9.7 km/h 11.3 km/h 52% 0 mm 0.0 W/m2
04:34 19.6 °C 9.5 °C 1007.7 hPa SW 7.9 km/h 11.3 km/h 52% 0 mm 0.0 W/m2
04:44 19.5 °C 9.4 °C 1008 hPa SW 7.9 km/h 11.3 km/h 52% 0 mm 0.0 W/m2
04:49 19.5 °C 9.7 °C 1008 hPa SW 7.9 km/h 9.7 km/h 53% 0 mm 0.0 W/m2
05:04 19.3 °C 9.5 °C 1008 hPa SW 6.4 km/h 9.7 km/h 53% 0 mm 0.0 W/m2
05:09 19.2 °C 9.4 °C 1008 hPa SW 7.9 km/h 8 km/h 53% 0 mm 0.0 W/m2
05:14 19.1 °C 9.6 °C 1008 hPa SW 7.9 km/h 11.3 km/h 54% 0 mm 0.0 W/m2
05:20 18.9 °C 9.4 °C 1008 hPa SW 9.7 km/h 9.7 km/h 54% 0 mm 0.0 W/m2
05:30 18.8 °C 9.3 °C 1008 hPa SW 6.4 km/h 8 km/h 54% 0 mm 0.0 W/m2
05:35 18.7 °C 9.5 °C 1008 hPa SW 6.4 km/h 9.7 km/h 55% 0 mm 0.0 W/m2
05:40 18.7 °C 9.5 °C 1008 hPa SW 9.7 km/h 9.7 km/h 55% 0 mm 0.0 W/m2
05:45 18.6 °C 9.4 °C 1008 hPa SW 7.9 km/h 9.7 km/h 55% 0 mm 0.0 W/m2
05:50 18.6 °C 9.4 °C 1008 hPa SW 6.4 km/h 6.4 km/h 55% 0 mm 0.0 W/m2
05:55 18.4 °C 9.5 °C 1008 hPa SW 7.9 km/h 8 km/h 56% 0 mm 0.0 W/m2
06:01 18.4 °C 9.5 °C 1008 hPa SW 6.4 km/h 8 km/h 56% 0 mm 0.0 W/m2
06:47 18.4 °C 9.5 °C 1008.4 hPa Calm     56% 0 mm 56.0 W/m2
06:57 18.8 °C 9.6 °C 1008.4 hPa Calm     55% 0 mm 86.0 W/m2
07:07 19.5 °C 9.9 °C 1008.4 hPa SW 4.7 km/h 6.4 km/h 54% 0 mm 125.0 W/m2
07:21 20.5 °C 10 °C 1008.7 hPa SW 9.7 km/h 12.9 km/h 51% 0 mm 188.0 W/m2
07:37 21.2 °C 10.1 °C 1009 hPa SW 9.7 km/h 12.9 km/h 49% 0 mm 246.0 W/m2
07:41 21.3 °C 10.2 °C 1009 hPa SW 13 km/h 14.5 km/h 49% 0 mm 264.0 W/m2
07:46 21.4 °C 10.2 °C 1009 hPa SW 14.3 km/h 16.1 km/h 49% 0 mm 279.0 W/m2
07:56 21.6 °C 10.1 °C 1009 hPa SW 11.1 km/h 14.5 km/h 48% 0 mm 313.0 W/m2
08:02 21.8 °C 10 °C 1009 hPa SW 11.1 km/h 14.5 km/h 47% 0 mm 332.0 W/m2
08:26 22.4 °C 9.9 °C 1009 hPa SW 6.4 km/h 11.3 km/h 45% 0 mm 406.0 W/m2
08:31 22.7 °C 10.2 °C 1009 hPa SW 6.4 km/h 11.3 km/h 45% 0 mm 434.0 W/m2
08:36 22.8 °C 9.9 °C 1009 hPa SW 9.7 km/h 11.3 km/h 44% 0 mm 450.0 W/m2
08:41 22.9 °C 10 °C 1009 hPa SW 6.4 km/h 12.9 km/h 44% 0 mm 471.0 W/m2
08:46 23.1 °C 9.8 °C 1009 hPa SW 7.9 km/h 11.3 km/h 43% 0 mm 487.0 W/m2
08:52 23.2 °C 9.6 °C 1009 hPa SW 4.7 km/h 11.3 km/h 42% 0 mm 503.0 W/m2
08:57 23.4 °C 9.8 °C 1009 hPa SW 7.9 km/h 9.7 km/h 42% 0 mm 520.0 W/m2
09:02 23.7 °C 9.7 °C 1009 hPa SW 6.4 km/h 11.3 km/h 41% 0 mm 538.0 W/m2
09:07 24.1 °C 9.7 °C 1009 hPa SW 7.9 km/h 11.3 km/h 40% 0 mm 552.0 W/m2
10:17 27.2 °C 8.1 °C 1009 hPa Calm     30% 0 mm 747.0 W/m2
11:18 30.8 °C 5.2 °C 1008.4 hPa Calm     20% 0 mm 886.0 W/m2
11:30 31.4 °C 4.2 °C 1008.4 hPa Calm   4.8 km/h 18% 0 mm 905.0 W/m2
11:39 31.8 °C 4.6 °C 1008 hPa Calm     18% 0 mm 928.0 W/m2
11:54 32.4 °C 4.2 °C 1007.7 hPa Calm   12.9 km/h 17% 0 mm 944.0 W/m2
12:40 34.1 °C 2.8 °C 1007.3 hPa Calm   20.9 km/h 14% 0 mm 977.0 W/m2
12:50 34.6 °C 3.2 °C 1007.3 hPa WNW 9.7 km/h 20.9 km/h 14% 0 mm 979.0 W/m2
13:05 35.1 °C 2.6 °C 1006.7 hPa Calm   11.3 km/h 13% 0 mm 977.0 W/m2
13:25 36.2 °C 1.1 °C 1006.7 hPa Calm   11.3 km/h 11% 0 mm 976.0 W/m2
13:41 36.5 °C 1.3 °C 1006.3 hPa NW 14.3 km/h 19.3 km/h 11% 0 mm 969.0 W/m2
13:50 37 °C 1.7 °C 1006 hPa North 3.2 km/h 17.7 km/h 11% 0 mm 958.0 W/m2
14:10 37.7 °C 0.9 °C 1005.6 hPa NNW 1.4 km/h 22.5 km/h 10% 0 mm 942.0 W/m2
14:21 37.7 °C 0.9 °C 1005.6 hPa NNW 1.4 km/h 14.5 km/h 10% 0 mm 928.0 W/m2
14:35 38.2 °C -0.2 °C 1005 hPa NW 1.4 km/h 17.7 km/h 9% 0 mm 907.0 W/m2
14:55 38.2 °C -0.2 °C 1004.6 hPa NW 13 km/h 19.3 km/h 9% 0 mm 860.0 W/m2
15:11 38.8 °C 0.2 °C 1004.3 hPa NW 7.9 km/h 14.5 km/h 9% 0 mm 828.0 W/m2
15:26 38.9 °C 0.3 °C 1004.3 hPa NW 1.4 km/h 8 km/h 9% 0 mm 795.0 W/m2
15:41 38.9 °C 0.3 °C 1003.9 hPa NNW 11.1 km/h 12.9 km/h 9% 0 mm 761.0 W/m2
15:56 39.4 °C -0.9 °C 1003.9 hPa NW 24.1 km/h 25.7 km/h 8% 0 mm 731.0 W/m2
16:06 39.7 °C -0.7 °C 1003.6 hPa NW 1.4 km/h 12.9 km/h 8% 0 mm 687.0 W/m2
17:13 39.8 °C -0.6 °C 1002.6 hPa Calm     8% 0 mm 506.0 W/m2
17:27 39.2 °C 3.4 °C 1002.3 hPa SSW 28.8 km/h 29 km/h 11% 0 mm 438.0 W/m2
17:44 38.3 °C 6.1 °C 1002.3 hPa SSW 25.9 km/h 40.2 km/h 14% 0 mm 392.0 W/m2
17:53 36.4 °C 6.5 °C 1002.6 hPa SSW 38.5 km/h 43.5 km/h 16% 0 mm 334.0 W/m2
18:12 35.6 °C 5.9 °C 1002.6 hPa SSW 20.9 km/h 37 km/h 16% 0 mm 278.0 W/m2
18:47 33.9 °C 4.6 °C 1003.6 hPa SW 40.4 km/h 41.8 km/h 16% 0 mm 144.0 W/m2
19:13 33.1 °C 3 °C 1003.9 hPa SSW 33.8 km/h 35.4 km/h 15% 0 mm 63.0 W/m2
19:23 32.3 °C 1.4 °C 1003.9 hPa South 22.7 km/h 37 km/h 14% 0 mm 23.0 W/m2
19:53 30.7 °C -0.9 °C 1004.6 hPa SSW 32 km/h 32.2 km/h 13% 0 mm 0.0 W/m2
20:09 29.8 °C 2.1 °C 1005 hPa SSW 27.4 km/h 30.6 km/h 17% 0 mm 0.0 W/m2
20:43 27.7 °C 5.9 °C 1005.6 hPa SSW 27.4 km/h 30.6 km/h 25% 0 mm 0.0 W/m2
20:52 27.4 °C 6.2 °C 1006 hPa SSW 25.9 km/h 29 km/h 26% 0 mm 0.0 W/m2
21:03 26.9 °C 6.8 °C 1006 hPa SW 24.1 km/h 29 km/h 28% 0 mm 0.0 W/m2
21:14 26.3 °C 7.3 °C 1006 hPa SSW 24.1 km/h 32.2 km/h 30% 0 mm 0.0 W/m2
21:28 25.2 °C 8.2 °C 1006.3 hPa SW 33.8 km/h 33.8 km/h 34% 0 mm 0.0 W/m2
21:38 24.9 °C 8.4 °C 1006.3 hPa SSW 25.9 km/h 33.8 km/h 35% 0 mm 0.0 W/m2
21:49 24.3 °C 8.7 °C 1006.7 hPa SSW 25.9 km/h 35.4 km/h 37% 0 mm 0.0 W/m2
22:04 23.8 °C 9 °C 1006.7 hPa SSW 27.4 km/h 35.4 km/h 39% 0 mm 0.0 W/m2
22:12 23.5 °C 9.1 °C 1007 hPa SSW 28.8 km/h 32.2 km/h 40% 0 mm 0.0 W/m2
22:23 23.3 °C 9.3 °C 1007.3 hPa SSW 17.7 km/h 24.1 km/h 41% 0 mm 0.0 W/m2
22:33 23.1 °C 9.1 °C 1007.3 hPa SSW 24.1 km/h 29 km/h 41% 0 mm 0.0 W/m2
22:51 22.6 °C 9.4 °C 1007.3 hPa SSW 24.1 km/h 27.4 km/h 43% 0 mm 0.0 W/m2
Canyon Roadhouse, Fishriver Canyon, Namibia
Compliments of Weather Underground - 2.25 mb